createdAt,value
2023-04-03T00:02:01.053Z,1.60
2023-04-03T00:06:02.923Z,1.73
2023-04-03T00:10:05.397Z,2.00
2023-04-03T00:14:07.206Z,1.93
2023-04-03T00:18:10.890Z,1.90
2023-04-03T00:22:12.315Z,2.17
2023-04-03T00:26:15.164Z,2.27
2023-04-03T00:30:19.272Z,2.20
2023-04-03T00:34:22.376Z,2.00
2023-04-03T00:38:23.821Z,2.30
2023-04-03T00:42:25.335Z,2.37
2023-04-03T00:46:26.945Z,2.23
2023-04-03T00:50:30.637Z,2.43
2023-04-03T00:54:32.554Z,2.70
2023-04-03T00:58:38.572Z,3.40
2023-04-03T01:02:40.314Z,3.70
2023-04-03T01:06:45.445Z,3.97
2023-04-03T01:10:47.078Z,4.17
2023-04-03T01:14:51.628Z,4.30
2023-04-03T01:18:53.503Z,4.17
2023-04-03T01:23:07.105Z,4.70
2023-04-03T01:27:10.823Z,4.63
2023-04-03T01:31:20.386Z,4.33
2023-04-03T01:35:24.646Z,4.43
2023-04-03T01:39:26.529Z,4.17
2023-04-03T01:43:28.028Z,4.33
2023-04-03T01:47:30.339Z,4.63
2023-04-03T01:51:33.566Z,4.20
2023-04-03T01:55:35.048Z,4.17
2023-04-03T01:59:37.742Z,4.33
2023-04-03T02:03:39.272Z,4.13
2023-04-03T02:07:42.171Z,4.10
2023-04-03T02:11:43.626Z,3.87
2023-04-03T02:15:45.571Z,4.17
2023-04-03T02:19:47.169Z,3.57
2023-04-03T02:23:49.979Z,4.00
2023-04-03T02:27:51.429Z,3.50
2023-04-03T02:31:53.112Z,3.83
2023-04-03T02:35:55.322Z,3.57
2023-04-03T02:39:58.417Z,3.90
2023-04-03T02:44:00.242Z,3.83
2023-04-03T02:48:01.833Z,3.73
2023-04-03T02:52:03.493Z,3.73
2023-04-03T02:56:06.699Z,4.20
2023-04-03T03:00:09.692Z,4.10
2023-04-03T03:04:11.097Z,4.20
2023-04-03T03:08:13.597Z,4.20
2023-04-03T03:12:16.692Z,3.90
2023-04-03T03:16:18.128Z,3.50
2023-04-03T03:20:19.556Z,3.30
2023-04-03T03:24:20.970Z,3.20
2023-04-03T03:28:24.414Z,3.57
2023-04-03T03:32:25.985Z,3.10
2023-04-03T03:36:27.442Z,3.40
2023-04-03T03:40:29.263Z,3.63
2023-04-03T03:44:31.996Z,3.40
2023-04-03T03:48:33.472Z,3.40
2023-04-03T03:52:35.059Z,3.23
2023-04-03T03:56:36.606Z,3.40
2023-04-03T04:00:39.506Z,2.90
2023-04-03T04:04:41.469Z,3.37
2023-04-03T04:08:43.117Z,2.50
2023-04-03T04:12:44.759Z,3.20
2023-04-03T04:16:47.925Z,2.80
2023-04-03T04:20:49.575Z,3.27
2023-04-03T04:24:51.022Z,2.80
2023-04-03T04:28:52.436Z,3.20
2023-04-03T04:32:55.435Z,2.70
2023-04-03T04:36:58.297Z,3.13
2023-04-03T04:40:59.825Z,2.43
2023-04-03T04:45:01.429Z,2.80
2023-04-03T04:49:04.277Z,2.70
2023-04-03T04:53:05.960Z,2.90
2023-04-03T04:57:07.547Z,2.90
2023-04-03T05:01:12.238Z,2.60
2023-04-03T05:05:15.239Z,2.57
2023-04-03T05:09:17.015Z,2.47
2023-04-03T05:13:18.519Z,2.47
2023-04-03T05:17:20.023Z,4.50
2023-04-03T05:21:22.975Z,4.57
2023-04-03T05:25:24.643Z,2.83
2023-04-03T05:29:28.670Z,2.80
2023-04-03T05:33:30.285Z,2.50
2023-04-03T05:37:33.258Z,2.33
2023-04-03T05:41:34.791Z,2.60
2023-04-03T05:45:36.471Z,2.30
2023-04-03T05:49:38.224Z,2.33
2023-04-03T05:53:41.915Z,2.40
2023-04-03T05:57:43.535Z,2.53
2023-04-03T06:01:45.079Z,2.30
2023-04-03T06:05:46.533Z,2.03
2023-04-03T06:09:50.657Z,2.30
2023-04-03T06:13:52.346Z,2.50
2023-04-03T06:17:53.797Z,2.10
2023-04-03T06:21:56.377Z,2.30
2023-04-03T06:25:59.271Z,2.30
2023-04-03T06:30:00.709Z,2.47
2023-04-03T06:34:02.471Z,2.30
2023-04-03T06:38:04.127Z,2.10
2023-04-03T06:42:07.063Z,2.00
2023-04-03T06:46:13.786Z,1.90
2023-04-03T06:50:15.713Z,2.20
2023-04-03T06:54:17.139Z,2.40
2023-04-03T06:58:21.755Z,2.30
2023-04-03T07:02:24.125Z,2.10
2023-04-03T07:06:25.646Z,2.10
2023-04-03T07:10:27.126Z,1.80
2023-04-03T07:14:30.241Z,2.03
2023-04-03T07:18:31.627Z,1.90
2023-04-03T07:22:33.055Z,1.87
2023-04-03T07:26:34.573Z,1.80
2023-04-03T07:30:43.366Z,1.80
2023-04-03T07:34:45.134Z,2.60
2023-04-03T07:38:46.592Z,1.90
2023-04-03T07:42:47.984Z,1.77
2023-04-03T07:46:51.120Z,2.10
2023-04-03T07:50:53.229Z,1.90
2023-04-03T07:54:54.620Z,2.00
2023-04-03T07:58:56.144Z,2.00
2023-04-03T08:02:59.538Z,2.43
2023-04-03T08:07:01.878Z,1.93
2023-04-03T08:11:03.805Z,1.90
2023-04-03T08:15:06.358Z,2.87
2023-04-03T08:19:15.135Z,2.00
2023-04-03T08:23:20.595Z,1.60
2023-04-03T08:27:21.992Z,1.47
2023-04-03T08:31:23.518Z,1.70
2023-04-03T08:35:26.389Z,1.47
2023-04-03T08:39:28.820Z,1.60
2023-04-03T08:43:42.199Z,1.63
2023-04-03T08:47:52.418Z,2.00
2023-04-03T08:51:59.256Z,1.50
2023-04-03T08:56:07.185Z,1.40
2023-04-03T09:00:18.938Z,1.70
2023-04-03T09:04:20.685Z,1.57
2023-04-03T09:08:29.286Z,1.50
2023-04-03T09:12:38.600Z,1.80
2023-04-03T09:16:49.080Z,1.50
2023-04-03T09:21:00.189Z,1.60
2023-04-03T09:25:11.821Z,1.40
2023-04-03T09:29:19.320Z,1.50
2023-04-03T09:33:22.126Z,1.30
2023-04-03T09:37:41.109Z,1.40
2023-04-03T09:41:58.482Z,1.50
2023-04-03T09:46:20.661Z,1.50
2023-04-03T09:50:23.068Z,1.23
2023-04-03T09:54:33.838Z,1.30
2023-04-03T09:58:49.746Z,1.50
2023-04-03T10:02:55.634Z,1.30
2023-04-03T10:06:58.312Z,1.53
2023-04-03T10:11:18.490Z,1.37
2023-04-03T10:15:21.426Z,1.37
2023-04-03T10:19:34.888Z,1.30
2023-04-03T10:23:43.971Z,1.30
2023-04-03T10:27:54.677Z,1.60
2023-04-03T10:32:12.148Z,1.17
2023-04-03T10:36:25.898Z,1.20
2023-04-03T10:40:34.365Z,1.07
2023-04-03T10:44:48.836Z,1.20
2023-04-03T10:49:04.261Z,1.30
2023-04-03T10:53:16.679Z,1.10
2023-04-03T10:57:19.372Z,1.00
2023-04-03T11:01:25.535Z,1.00
2023-04-03T11:05:35.489Z,1.23
2023-04-03T11:09:41.072Z,1.03
2023-04-03T11:13:46.336Z,1.00
2023-04-03T11:17:55.269Z,1.10
2023-04-03T11:22:03.568Z,1.07
2023-04-03T11:26:13.350Z,1.20
2023-04-03T11:30:22.085Z,1.23
2023-04-03T11:34:34.299Z,0.97
2023-04-03T11:38:41.772Z,1.10
2023-04-03T11:42:46.894Z,1.07
2023-04-03T11:46:56.969Z,1.30
2023-04-03T11:51:00.225Z,1.13
2023-04-03T11:55:03.261Z,1.50
2023-04-03T11:59:29.711Z,1.80
2023-04-03T12:03:53.404Z,1.30
2023-04-03T12:08:25.282Z,1.50
2023-04-03T12:12:35.072Z,1.50
2023-04-03T12:16:45.449Z,1.80
2023-04-03T12:20:58.833Z,1.47
2023-04-03T12:25:35.413Z,1.40
2023-04-03T12:29:49.089Z,1.10
2023-04-03T12:34:10.018Z,2.07
2023-04-03T12:38:31.837Z,2.23
2023-04-03T12:42:57.615Z,2.03
2023-04-03T12:47:02.952Z,1.40
2023-04-03T12:51:05.862Z,1.47
2023-04-03T12:55:15.191Z,1.23
2023-04-03T12:59:19.711Z,1.37
2023-04-03T13:03:28.432Z,1.00
2023-04-03T13:07:33.121Z,1.10
2023-04-03T13:11:37.390Z,0.90
2023-04-03T13:15:44.302Z,1.30
2023-04-03T13:19:47.338Z,1.30
2023-04-03T13:23:57.553Z,1.10
2023-04-03T13:28:13.798Z,1.10
2023-04-03T13:32:21.670Z,1.30
2023-04-03T13:36:32.143Z,1.00
2023-04-03T13:40:45.184Z,1.10
2023-04-03T13:44:49.357Z,1.20
2023-04-03T13:48:55.155Z,1.10
2023-04-03T13:53:02.982Z,1.10
2023-04-03T13:57:13.715Z,1.10
2023-04-03T14:01:21.098Z,1.10
2023-04-03T14:05:23.849Z,1.03
2023-04-03T14:09:28.357Z,1.10
2023-04-03T14:13:31.140Z,1.17
2023-04-03T14:17:32.652Z,1.20
2023-04-03T14:21:34.156Z,1.50
2023-04-03T14:25:37.421Z,1.10
2023-04-03T14:29:38.898Z,1.40
2023-04-03T14:33:40.531Z,1.30
2023-04-03T14:37:43.034Z,1.00
2023-04-03T14:41:47.086Z,1.40
2023-04-03T14:45:51.210Z,1.00
2023-04-03T14:49:52.842Z,1.20
2023-04-03T14:53:54.740Z,1.20
2023-04-03T14:57:57.704Z,1.20
2023-04-03T15:01:59.232Z,1.33
2023-04-03T15:06:01.027Z,1.00
2023-04-03T15:10:14.753Z,1.50
2023-04-03T15:14:29.492Z,1.10
2023-04-03T15:18:38.915Z,1.20
2023-04-03T15:22:40.586Z,1.17
2023-04-03T15:26:42.357Z,1.43
2023-04-03T15:30:45.221Z,1.13
2023-04-03T15:34:46.869Z,1.20
2023-04-03T15:38:50.021Z,1.30
2023-04-03T15:42:53.902Z,1.37
2023-04-03T15:46:59.183Z,1.40
2023-04-03T15:51:00.987Z,1.20
2023-04-03T15:55:03.547Z,1.30
2023-04-03T15:59:05.081Z,1.03
2023-04-03T16:03:12.055Z,1.00
2023-04-03T16:07:13.766Z,1.20
2023-04-03T16:11:15.583Z,1.20
2023-04-03T16:15:19.926Z,1.30
2023-04-03T16:19:24.529Z,1.43
2023-04-03T16:23:26.702Z,1.40
2023-04-03T16:27:29.558Z,2.00
2023-04-03T16:31:33.105Z,1.37
2023-04-03T16:35:36.837Z,1.33
2023-04-03T16:39:38.718Z,1.43
2023-04-03T16:47:47.769Z,3.67
2023-04-03T16:51:51.554Z,1.40
2023-04-03T16:55:53.117Z,1.30
2023-04-03T16:59:55.096Z,1.00
2023-04-03T17:03:57.150Z,1.37
2023-04-03T17:08:00.067Z,1.60
2023-04-03T17:12:02.348Z,1.40
2023-04-03T17:16:06.617Z,1.50
2023-04-03T17:20:09.997Z,1.63
2023-04-03T17:24:14.865Z,1.40
2023-04-03T17:28:16.350Z,1.37
2023-04-03T17:32:17.942Z,1.47
2023-04-03T17:36:21.917Z,1.30
2023-04-03T17:40:26.430Z,1.00
2023-04-03T17:44:28.138Z,1.20
2023-04-03T17:48:29.994Z,1.17
2023-04-03T17:52:33.104Z,1.10
2023-04-03T17:56:36.337Z,1.10
2023-04-03T18:00:40.407Z,1.23
2023-04-03T18:04:42.281Z,1.50
2023-04-03T18:08:47.177Z,1.80
2023-04-03T18:12:51.484Z,1.20
2023-04-03T18:16:53.944Z,1.70
2023-04-03T18:20:55.346Z,1.87
2023-04-03T18:24:57.822Z,1.60
2023-04-03T18:29:05.724Z,1.53
2023-04-03T18:33:07.148Z,2.67
2023-04-03T18:37:08.770Z,1.77
2023-04-03T18:41:10.154Z,1.80
2023-04-03T18:45:18.189Z,1.97
2023-04-03T18:49:20.117Z,1.60
2023-04-03T18:53:22.063Z,1.40
2023-04-03T18:57:23.483Z,1.43
2023-04-03T19:01:26.529Z,1.90
2023-04-03T19:05:28.151Z,1.70
2023-04-03T19:09:29.586Z,1.40
2023-04-03T19:13:30.990Z,1.20
2023-04-03T19:17:33.811Z,1.70
2023-04-03T19:21:35.274Z,1.93
2023-04-03T19:25:36.935Z,1.60
2023-04-03T19:29:38.628Z,1.47
2023-04-03T19:33:41.800Z,1.80
2023-04-03T19:37:44.509Z,1.77
2023-04-03T19:41:46.009Z,1.77
2023-04-03T19:45:47.408Z,1.60
2023-04-03T19:49:50.665Z,1.53
2023-04-03T19:53:52.633Z,1.67
2023-04-03T19:57:54.278Z,1.87
2023-04-03T20:01:55.767Z,1.37
2023-04-03T20:05:58.534Z,1.57
2023-04-03T20:09:59.945Z,1.60
2023-04-03T20:14:01.554Z,1.80
2023-04-03T20:18:02.964Z,1.50
2023-04-03T20:22:07.061Z,1.57
2023-04-03T20:26:11.201Z,1.80
2023-04-03T20:30:16.847Z,1.50
2023-04-03T20:34:18.542Z,1.40
2023-04-03T20:38:21.579Z,1.40
2023-04-03T20:42:22.989Z,1.60
2023-04-03T20:46:25.570Z,1.60
2023-04-03T20:50:30.429Z,1.60
2023-04-03T20:54:33.329Z,1.80
2023-04-03T20:58:36.559Z,1.37
2023-04-03T21:02:38.089Z,1.50
2023-04-03T21:07:17.787Z,1.63
2023-04-03T21:11:56.226Z,1.43
2023-04-03T21:16:00.358Z,1.60
2023-04-03T21:20:03.411Z,1.70
2023-04-03T21:24:06.866Z,1.57
2023-04-03T21:28:08.487Z,1.30
2023-04-03T21:32:09.913Z,1.80
2023-04-03T21:36:12.882Z,1.80
2023-04-03T21:40:14.447Z,1.40
2023-04-03T21:44:16.146Z,1.80
2023-04-03T21:48:17.546Z,1.90
2023-04-03T21:52:20.514Z,1.67
2023-04-03T21:56:24.930Z,1.60
2023-04-03T22:00:26.906Z,1.40
2023-04-03T22:04:28.768Z,1.30
2023-04-03T22:08:31.455Z,1.30
2023-04-03T22:12:32.898Z,1.47
2023-04-03T22:16:36.245Z,1.50
2023-04-03T22:20:37.930Z,1.63
2023-04-03T22:24:40.656Z,1.50
2023-04-03T22:28:44.043Z,1.60
2023-04-03T22:32:45.493Z,1.70
2023-04-03T22:36:47.102Z,1.70
2023-04-03T22:40:56.289Z,2.00
2023-04-03T22:44:57.625Z,1.87
2023-04-03T22:48:59.248Z,1.77
2023-04-03T22:53:01.150Z,1.50
2023-04-03T22:57:07.073Z,1.43
2023-04-03T23:01:10.007Z,1.70
2023-04-03T23:05:11.513Z,1.50
2023-04-03T23:09:13.136Z,1.40
2023-04-03T23:13:15.885Z,1.30
2023-04-03T23:17:17.614Z,1.40
2023-04-03T23:21:22.072Z,1.33
2023-04-03T23:25:25.191Z,1.30
2023-04-03T23:29:30.402Z,1.50
2023-04-03T23:33:33.139Z,1.30
2023-04-03T23:37:35.211Z,1.60
2023-04-03T23:41:38.226Z,1.40
2023-04-03T23:45:41.203Z,1.27
2023-04-03T23:49:43.888Z,1.40
2023-04-03T23:53:45.530Z,1.30
2023-04-03T23:57:46.915Z,1.40
